Palm Village, Texas
Current Conditions -  °F | °C
As of 5:03 AM on Friday 28 Nov 2014 (Local Time) from KBRO Reporting Station
Haze Haze  
Wind Chill: 50°   Ceiling: 200
Heat Index: 50°   Visibility: 0.75mi
Dew Point: 49°   Wind: 0mph
Humidity: 96%   Direction: NA
Pressure: 30.31"   Gusts: NA
Location:  26.0002°N, 97.5729°W
Report Text: KBRO 281103Z 00000KT 3/4SM BR VV002 10/09 A3031 RMK AO2 VIS 1/2V2 1/2 T01000094
Loading
Personal Weather Stations






























Interactive Weather Map New forecast layout! Learn more

10-Day Weather Forecast

Advertisements
Track Severe Weather on mobile